Amunt
Inicio > meteoXarxa
Fes-te'n soci

METEOXARXA

Borriol
Ubicació Mas de Gaetà
Comarca la Plana Alta
Altitud (msnm) 175
Posició geogràfica 40° 1' 0.84" N, 00° 7' 33.60" W
Model Netatmo (amb garita Davis)
Presa de dades
Font de les dades Jaime Arasa Aparici
Estadístiques. Resum
Data Temperatura (ºC) Humitat (%) Pressió (hPa) Vent (km/h) Precipit. (mm)
Mínima Mitjana Màxima Mínima Mitjana Màxima Mínima Mitjana Màxima Predom. Mitjana Ràfega màxima Total Dies de pluja
Mínima Mitjana Màxima Mínima Mitjana Màxima
Últimes dades diàries
16-01-2017 7,8          
15-01-2017 4,6     9,7     14,8 33,0 46,5 60,0 1.021,1 1.023,3 1.025,5 NNE 15,0 44,0 0,0  
14-01-2017 5,1     9,1     13,1 28,0 43,0 58,0 1.021,7 1.025,5 1.026,0 NO 12,0 34,0 0,0  
13-01-2017 7,3     11,4     15,5 32,0 48,0 64,0 1.015,1 1.018,9 1.022,7 NO 14,0 30,0 0,0  
12-01-2017 7,7     13,0     18,3 52,0 67,0 82,0 1.015,7 1.020,4 1.025,1 NE 11,0 40,0 0,0  
11-01-2017 7,9     10,7     13,5 54,0 67,0 80,0 1.012,3 1.018,8 1.025,4 SSO 8,0 33,0 0,0  
10-01-2017 6,4     10,6     14,7 47,0 68,0 89,0 1.010,2 1.015,9 1.021,6 NNO 15,0 39,0 0,0  
09-01-2017 5,8     10,2     14,6 53,0 70,5 88,0 1.021,4 1.024,4 1.027,5 ENE 9,0 42,0 0,0  
08-01-2017 4,0     9,8     15,6 36,0 63,0 90,0 1.024,3 1.027,2 1.030,1 NE 11,0 53,0 0,0  
07-01-2017 4,8     9,6     14,3 63,0 78,0 93,0 1.028,2 1.029,5 1.030,9 SSO 11,0 44,0 0,0  
06-01-2017 4,7     9,2     13,7 64,0 74,5 85,0 1.026,2 1.028,1 1.030,1 SO 10,0 39,0 0,0  
05-01-2017 6,4     9,9     16,5 39,0 64,5 90,0 1.019,8 1.022,9 1.026,1 SSO 9,0 33,0 0,0  
04-01-2017 7,0     11,2     15,5 74,0 85,5 97,0 1.021,6 1.023,1 1.024,7 NE 8,0 30,0 0,1  
03-01-2017 6,4     10,7     15,0 69,0 81,5 94,0 1.020,8 1.022,5 1.024,3 SSO 8,0 35,0 0,0  
02-01-2017 5,3     8,8     12,4 67,0 80,5 94,0 1.020,9 1.022,5 1.024,1 NE 9,0 35,0 0,0  
01-01-2017 5,1     10,4     15,7 58,0 74,0 90,0 1.021,9 1.026,3 1.030,8 ENE 11,0 47,0 0,0  
31-12-2016 7,1     11,9     16,7 51,0 71,0 91,0 1.030,7 1.032,6 1.034,5 NE 7,0 35,0 0,0  
30-12-2016 5,1     10,2     15,4 54,0 70,5 87,0 1.033,6 1.035,0 1.036,5 ENE 12,0 50,0 0,0  
29-12-2016 5,2     10,8     16,3 50,0 68,0 86,0 1.031,7 1.033,6 1.035,5 SO 11,0 41,0 0,0  
28-12-2016 7,6     12,4     17,2 55,0 72,5 90,0 1.034,9 1.036,3 1.037,8 SO 9,0 38,0 0,0  
27-12-2016 7,1     11,9     16,7 57,0 73,5 90,0 1.031,7 1.033,6 1.035,5 ENE 8,0 30,0 0,0  
26-12-2016 8,8     13,2     17,5 70,0 79,0 88,0 1.029,9 1.031,0 1.032,1 E 7,0 34,0 0,0  
25-12-2016 8,6     13,3     18,1 50,0 64,5 79,0 1.030,3 1.033,5 1.036,8 SO 9,0 41,0 0,0  
24-12-2016 9,1     13,9     18,8 47,0 64,0 81,0 1.035,0 1.036,3 1.037,7 NE 6,0 28,0 0,0  
23-12-2016 9,4     14,1     18,8 48,0 63,0 78,0 1.034,6 1.035,6 1.036,6 ESE 7,0 33,0 0,0  
22-12-2016 8,8     14,1     19,4 45,0 60,5 76,0 1.029,1 1.032,2 1.035,4 NE 8,0 36,0 0,0  
21-12-2016 7,8     12,9     18,0 46,0 55,5 65,0 1.021,5 1.025,5 1.029,5 SO 8,0 30,0 0,0  
20-12-2016 9,2     13,8     18,4 42,0 55,5 69,0 1.013,6 1.017,4 1.021,3 SO 9,0 34,0 0,0  
19-12-2016 7,2     8,7     10,1 67,0 81,0 95,0 1.012,6 1.017,1 1.021,6 NE 7,0 23,0 21,7  
18-12-2016 9,0     10,1     11,2 79,0 85,5 92,0 1.021,8 1.027,7 1.033,7 NE 6,0 24,0 2,9  
17-12-2016 10,1     12,1     14,0 79,0 87,5 96,0 1.024,5 1.029,2 1.034,0 NE 8,0 30,0 37,5  
16-12-2016 10,4     12,4     14,4 81,0 88,5 96,0 1.017,4 1.021,0 1.024,6 N 6,0 24,0 19,8  
Dades del mes en curs (actualitzades fins l'últim dia disponible)
01/2017 4,0 6,0 7,9 10,3 12,4 14,9 18,3 28,0 67,4 97,0 1.010,2 1.023,3 1.030,9   10,7 53,0 0,1  
Últimes dades mensuals
01/2017 4,0 6,0 7,9 10,3 12,4 14,9 18,3 43,0 67,4 85,5 1.015,9 1.023,3 1.029,5 10,7 53,0 0,1 1
12/2016 5,1 8,7 13,9 12,7 10,1 16,6 19,4 55,5 75,5 90,0 26,4 994,5 1.036,3 8,3 50,0 105,2 8
11/2016 5,0 9,6 11,3 12,0 12,8 14,4 15,5 72,0 83,5 87,5 1.007,3 1.014,8 1.029,4 101,5 13
Dades de l'any en curs (actualitzades fins l'últim dia disponible)
2017 4,0 6,0 7,9 10,3 12,4 14,9 18,3 28,0 67,4 97,0 1.010,2 1.023,3 1.030,9   10,7 53,0 0,1  
Últimes dades anuals
2016 5,0 9,8 13,9 12,8 12,8 15,7 19,3 81,8 82,7 83,5 897,4 956,1 1.014,8 9,3 38,0 124,4 16